createdAt,value
2022-12-22T00:02:22.706Z,91.67
2022-12-22T00:04:49.813Z,91.86
2022-12-22T00:07:16.482Z,91.20
2022-12-22T00:09:43.185Z,91.49
2022-12-22T00:12:11.883Z,91.33
2022-12-22T00:14:38.504Z,91.13
2022-12-22T00:17:25.261Z,90.90
2022-12-22T00:19:51.859Z,93.20
2022-12-22T00:22:24.175Z,90.19
2022-12-22T00:24:50.792Z,89.27
2022-12-22T00:27:26.081Z,90.81
2022-12-22T00:29:52.828Z,90.33
2022-12-22T00:32:19.597Z,90.49
2022-12-22T00:34:46.267Z,89.85
2022-12-22T00:37:13.605Z,89.32
2022-12-22T00:39:40.177Z,87.94
2022-12-22T00:42:06.749Z,87.91
2022-12-22T00:44:33.460Z,88.26
2022-12-22T00:47:00.281Z,89.41
2022-12-22T00:49:30.269Z,89.73
2022-12-22T00:51:57.013Z,88.94
2022-12-22T00:54:23.611Z,89.92
2022-12-22T00:56:50.190Z,90.50
2022-12-22T00:59:16.895Z,89.70
2022-12-22T01:01:43.723Z,90.07
2022-12-22T01:04:10.890Z,91.41
2022-12-22T01:06:37.481Z,91.14
2022-12-22T01:09:05.609Z,92.70
2022-12-22T01:11:33.468Z,91.80
2022-12-22T01:14:00.226Z,89.24
2022-12-22T01:16:26.873Z,88.56
2022-12-22T01:18:53.510Z,89.16
2022-12-22T01:21:20.841Z,89.56
2022-12-22T01:23:47.456Z,91.52
2022-12-22T01:26:14.060Z,91.07
2022-12-22T01:28:40.700Z,91.35
2022-12-22T01:31:31.814Z,91.55
2022-12-22T01:33:58.404Z,90.26
2022-12-22T01:36:25.091Z,90.74
2022-12-22T01:38:51.684Z,90.18
2022-12-22T01:41:20.574Z,91.82
2022-12-22T01:43:47.658Z,91.57
2022-12-22T01:46:25.539Z,91.25
2022-12-22T01:48:52.168Z,91.51
2022-12-22T01:51:26.750Z,90.49
2022-12-22T01:53:55.113Z,91.35
2022-12-22T01:56:22.127Z,90.98
2022-12-22T01:58:53.998Z,91.08
2022-12-22T02:01:20.740Z,91.07
2022-12-22T02:03:47.399Z,91.37
2022-12-22T02:06:31.801Z,91.74
2022-12-22T02:09:21.245Z,90.26
2022-12-22T02:12:05.369Z,91.57
2022-12-22T02:14:37.790Z,90.60
2022-12-22T02:17:27.228Z,91.06
2022-12-22T02:20:08.945Z,91.52
2022-12-22T02:22:46.517Z,92.07
2022-12-22T02:25:24.623Z,91.54
2022-12-22T02:27:54.410Z,91.22
2022-12-22T02:30:21.147Z,91.72
2022-12-22T02:32:48.122Z,91.24
2022-12-22T02:35:16.576Z,90.93
2022-12-22T02:38:24.683Z,88.34
2022-12-22T02:40:59.723Z,87.92
2022-12-22T02:43:53.909Z,90.39
2022-12-22T02:46:41.550Z,89.60
2022-12-22T02:49:25.913Z,90.65
2022-12-22T02:52:09.337Z,90.64
2022-12-22T02:54:36.369Z,87.93
2022-12-22T02:57:06.838Z,89.64
2022-12-22T02:59:33.489Z,90.39
2022-12-22T03:02:00.292Z,87.80
2022-12-22T03:04:27.034Z,86.55
2022-12-22T03:06:53.663Z,86.52
2022-12-22T03:09:20.265Z,84.58
2022-12-22T03:11:46.842Z,78.91
2022-12-22T03:14:13.481Z,80.28
2022-12-22T03:16:40.163Z,82.36
2022-12-22T03:19:06.772Z,84.40
2022-12-22T03:21:33.419Z,85.90
2022-12-22T03:24:00.069Z,85.20
2022-12-22T03:26:26.803Z,87.71
2022-12-22T03:28:53.593Z,87.84
2022-12-22T03:31:20.319Z,88.51
2022-12-22T03:33:47.525Z,89.95
2022-12-22T03:36:14.130Z,88.94
2022-12-22T03:38:40.768Z,88.27
2022-12-22T03:41:07.365Z,87.69
2022-12-22T03:43:33.932Z,88.30
2022-12-22T03:46:01.780Z,87.71
2022-12-22T03:48:29.241Z,86.24
2022-12-22T03:50:55.861Z,87.84
2022-12-22T03:53:22.562Z,90.08
2022-12-22T03:55:49.140Z,90.48
2022-12-22T03:58:15.726Z,91.71
2022-12-22T04:00:42.419Z,91.65
2022-12-22T04:03:09.155Z,92.86
2022-12-22T04:05:35.881Z,91.63
2022-12-22T04:08:02.463Z,92.60
2022-12-22T04:10:29.093Z,94.00
2022-12-22T04:12:55.727Z,93.84
2022-12-22T04:15:31.373Z,93.29
2022-12-22T04:17:59.213Z,93.40
2022-12-22T04:20:27.633Z,94.35
2022-12-22T04:22:55.163Z,94.42
2022-12-22T04:25:22.853Z,94.66
2022-12-22T04:27:49.470Z,97.91
2022-12-22T04:30:16.517Z,98.29
2022-12-22T04:32:44.009Z,100.00
2022-12-22T04:35:11.806Z,100.00
2022-12-22T04:37:38.417Z,98.53
2022-12-22T04:40:05.769Z,95.79
2022-12-22T04:42:32.345Z,99.06
2022-12-22T04:44:58.966Z,100.00
2022-12-22T04:47:25.534Z,100.00
2022-12-22T04:49:52.171Z,100.00
2022-12-22T04:52:18.766Z,100.00
2022-12-22T04:54:45.355Z,98.68
2022-12-22T04:57:12.109Z,96.92
2022-12-22T04:59:38.796Z,98.00
2022-12-22T05:02:05.530Z,99.54
2022-12-22T05:04:32.330Z,99.57
2022-12-22T05:06:59.053Z,100.00
2022-12-22T05:09:25.680Z,100.00
2022-12-22T05:11:52.269Z,100.00
2022-12-22T05:14:18.884Z,100.00
2022-12-22T05:16:45.528Z,100.00
2022-12-22T05:19:12.253Z,99.81
2022-12-22T05:21:38.942Z,97.59
2022-12-22T05:24:06.729Z,97.86
2022-12-22T05:26:33.419Z,100.00
2022-12-22T05:29:00.127Z,100.00
2022-12-22T05:31:26.839Z,100.00
2022-12-22T05:33:53.550Z,100.00
2022-12-22T05:36:20.173Z,100.00
2022-12-22T05:38:46.791Z,100.00
2022-12-22T05:41:13.547Z,100.00
2022-12-22T05:43:40.226Z,100.00
2022-12-22T05:46:09.770Z,100.00
2022-12-22T05:48:38.864Z,98.81
2022-12-22T05:51:09.694Z,98.41
2022-12-22T05:53:37.435Z,100.00
2022-12-22T05:56:04.552Z,100.00
2022-12-22T05:58:31.148Z,99.78
2022-12-22T06:00:58.446Z,98.68
2022-12-22T06:03:26.809Z,100.00
2022-12-22T06:05:54.350Z,100.00
2022-12-22T06:08:21.135Z,100.00
2022-12-22T06:10:48.019Z,100.00
2022-12-22T06:13:14.889Z,100.00
2022-12-22T06:15:41.573Z,100.00
2022-12-22T06:18:08.207Z,100.00
2022-12-22T06:20:34.875Z,100.00
2022-12-22T06:23:01.486Z,100.00
2022-12-22T06:25:28.116Z,100.00
2022-12-22T06:27:54.749Z,99.61
2022-12-22T06:30:24.527Z,98.63
2022-12-22T06:32:54.082Z,100.00
2022-12-22T06:35:20.657Z,100.00
2022-12-22T06:37:47.251Z,99.60
2022-12-22T06:40:14.138Z,100.00
2022-12-22T06:42:40.776Z,100.00
2022-12-22T06:45:07.916Z,100.00
2022-12-22T06:47:34.504Z,100.00
2022-12-22T06:50:01.102Z,100.00
2022-12-22T06:52:27.684Z,100.00
2022-12-22T06:54:54.278Z,100.00
2022-12-22T06:57:20.856Z,100.00
2022-12-22T06:59:50.900Z,100.00
2022-12-22T07:02:20.471Z,100.00
2022-12-22T07:04:47.243Z,100.00
2022-12-22T07:07:13.835Z,100.00
2022-12-22T07:09:40.455Z,100.00
2022-12-22T07:12:07.318Z,100.00
2022-12-22T07:14:33.927Z,100.00
2022-12-22T07:17:00.511Z,100.00
2022-12-22T07:19:27.211Z,100.00
2022-12-22T07:21:53.829Z,100.00
2022-12-22T07:24:20.488Z,100.00
2022-12-22T07:26:47.081Z,100.00
2022-12-22T07:29:13.667Z,100.00
2022-12-22T07:31:40.357Z,100.00
2022-12-22T07:34:06.994Z,100.00
2022-12-22T07:36:33.684Z,99.33
2022-12-22T07:39:00.364Z,100.00
2022-12-22T07:41:26.976Z,100.00
2022-12-22T07:43:55.085Z,99.38
2022-12-22T07:46:23.473Z,100.00
2022-12-22T07:48:50.197Z,96.89
2022-12-22T07:51:16.795Z,96.49
2022-12-22T07:53:43.413Z,98.68
2022-12-22T07:56:10.084Z,96.54
2022-12-22T07:58:36.750Z,94.45
2022-12-22T08:01:03.386Z,98.41
2022-12-22T08:03:30.118Z,100.00
2022-12-22T08:05:56.763Z,100.00
2022-12-22T08:08:23.359Z,100.00
2022-12-22T08:10:50.022Z,100.00
2022-12-22T08:13:16.808Z,100.00
2022-12-22T08:15:43.499Z,99.25
2022-12-22T08:18:10.183Z,97.63
2022-12-22T08:20:36.847Z,95.29
2022-12-22T08:23:03.479Z,91.95
2022-12-22T08:25:32.351Z,91.57
2022-12-22T08:27:59.963Z,95.46
2022-12-22T08:30:27.486Z,95.04
2022-12-22T08:32:54.082Z,96.84
2022-12-22T08:35:20.835Z,100.00
2022-12-22T08:37:48.746Z,95.02
2022-12-22T08:40:21.834Z,97.45
2022-12-22T08:43:00.256Z,100.00
2022-12-22T08:45:26.833Z,100.00
2022-12-22T08:47:53.822Z,100.00
2022-12-22T08:50:20.442Z,100.00
2022-12-22T08:52:47.032Z,99.91
2022-12-22T08:55:13.630Z,96.56
2022-12-22T08:57:40.373Z,96.29
2022-12-22T09:00:09.555Z,97.09
2022-12-22T09:02:36.823Z,96.77
2022-12-22T09:05:03.691Z,96.61
2022-12-22T09:07:30.387Z,97.30
2022-12-22T09:09:56.986Z,99.61
2022-12-22T09:12:23.581Z,97.19
2022-12-22T09:14:50.198Z,97.09
2022-12-22T09:17:16.838Z,94.67
2022-12-22T09:19:43.450Z,94.79
2022-12-22T09:22:10.132Z,95.60
2022-12-22T09:24:36.708Z,95.22
2022-12-22T09:27:03.483Z,98.30
2022-12-22T09:29:30.160Z,100.00
2022-12-22T09:31:56.820Z,98.70
2022-12-22T09:34:23.509Z,98.14
2022-12-22T09:36:50.115Z,95.13
2022-12-22T09:39:16.750Z,93.93
2022-12-22T09:41:46.793Z,94.18
2022-12-22T09:44:22.849Z,95.57
2022-12-22T09:46:50.730Z,97.10
2022-12-22T09:49:19.175Z,94.35
2022-12-22T09:52:05.111Z,93.95
2022-12-22T09:54:31.854Z,95.70
2022-12-22T09:56:58.745Z,94.57
2022-12-22T09:59:28.695Z,98.54
2022-12-22T10:01:55.408Z,95.74
2022-12-22T10:04:53.175Z,95.13
2022-12-22T10:07:28.442Z,97.66
2022-12-22T10:09:55.099Z,97.54
2022-12-22T10:12:24.836Z,93.88
2022-12-22T10:14:53.068Z,96.19
2022-12-22T10:17:33.345Z,94.08
2022-12-22T10:20:21.669Z,94.82
2022-12-22T10:22:49.280Z,91.47
2022-12-22T10:25:52.417Z,93.22
2022-12-22T10:28:30.082Z,97.16
2022-12-22T10:31:17.489Z,98.84
2022-12-22T10:33:47.555Z,99.93
2022-12-22T10:36:21.728Z,99.41
2022-12-22T10:38:54.138Z,96.64
2022-12-22T10:41:23.721Z,99.93
2022-12-22T10:43:55.711Z,98.64
2022-12-22T10:46:35.963Z,97.92
2022-12-22T10:49:15.597Z,93.06
2022-12-22T10:51:45.871Z,93.49
2022-12-22T10:54:48.009Z,97.14
2022-12-22T10:57:14.615Z,97.92
2022-12-22T10:59:59.454Z,97.40
2022-12-22T11:02:35.574Z,95.57
2022-12-22T11:05:08.422Z,92.66
2022-12-22T11:07:46.427Z,92.83
2022-12-22T11:10:15.936Z,94.08
2022-12-22T11:12:45.044Z,92.38
2022-12-22T11:15:49.608Z,93.13
2022-12-22T11:18:18.677Z,92.88
2022-12-22T11:20:50.803Z,90.59
2022-12-22T11:23:35.248Z,91.29
2022-12-22T11:26:04.410Z,91.52
2022-12-22T11:28:46.051Z,91.01
2022-12-22T11:31:24.193Z,89.62
2022-12-22T11:33:53.360Z,89.81
2022-12-22T11:36:23.867Z,91.84
2022-12-22T11:39:00.934Z,92.40
2022-12-22T11:41:33.016Z,95.30
2022-12-22T11:44:14.892Z,92.22
2022-12-22T11:46:54.709Z,92.40
2022-12-22T11:49:32.941Z,91.44
2022-12-22T11:52:28.152Z,90.77
2022-12-22T11:55:03.731Z,86.63
2022-12-22T11:58:08.839Z,94.32
2022-12-22T12:01:13.103Z,99.82
2022-12-22T12:04:08.020Z,99.51
2022-12-22T12:07:14.245Z,100.00
2022-12-22T12:09:46.739Z,92.85
2022-12-22T12:12:25.181Z,92.54
2022-12-22T12:15:29.063Z,90.42
2022-12-22T12:18:12.594Z,92.43
2022-12-22T12:20:48.227Z,95.02
2022-12-22T12:23:28.042Z,94.35
2022-12-22T12:25:54.588Z,93.71
2022-12-22T12:28:38.444Z,95.56
2022-12-22T12:31:07.535Z,94.27
2022-12-22T12:33:43.879Z,89.29
2022-12-22T12:36:24.091Z,89.20
2022-12-22T12:39:28.889Z,88.20
2022-12-22T12:42:32.745Z,88.40
2022-12-22T12:44:59.812Z,88.95
2022-12-22T12:47:31.968Z,91.43
2022-12-22T12:50:31.511Z,92.47
2022-12-22T12:52:58.447Z,90.69
2022-12-22T12:55:32.656Z,92.92
2022-12-22T12:58:02.479Z,96.25
2022-12-22T13:00:31.857Z,94.92
2022-12-22T13:03:00.730Z,97.17
2022-12-22T13:05:29.522Z,96.86
2022-12-22T13:08:18.791Z,96.65
2022-12-22T13:10:54.243Z,94.28
2022-12-22T13:13:23.619Z,94.88
2022-12-22T13:15:59.450Z,93.27
2022-12-22T13:18:26.164Z,95.09
2022-12-22T13:21:51.672Z,95.40
2022-12-22T13:24:28.626Z,94.35
2022-12-22T13:27:02.068Z,93.10
2022-12-22T13:29:40.115Z,97.93
2022-12-22T13:32:24.573Z,97.97
2022-12-22T13:35:28.993Z,95.58
2022-12-22T13:37:44.549Z,97.68
2022-12-22T13:40:20.657Z,100.00
2022-12-22T13:42:56.475Z,100.00
2022-12-22T13:45:45.153Z,94.40
2022-12-22T13:48:17.396Z,90.80
2022-12-22T13:50:48.951Z,91.57
2022-12-22T13:53:50.000Z,92.83
2022-12-22T13:56:20.814Z,92.60
2022-12-22T13:58:53.243Z,93.79
2022-12-22T14:01:20.357Z,96.54
2022-12-22T14:04:03.204Z,91.35
2022-12-22T14:06:33.577Z,95.71
2022-12-22T14:09:29.508Z,98.04
2022-12-22T14:12:02.012Z,96.97
2022-12-22T14:14:34.183Z,100.00
2022-12-22T14:17:01.843Z,100.00
2022-12-22T14:19:34.999Z,100.00
2022-12-22T14:22:15.489Z,100.00
2022-12-22T14:24:46.287Z,100.00
2022-12-22T14:27:39.034Z,100.00
2022-12-22T14:30:15.744Z,100.00
2022-12-22T14:32:55.201Z,100.00
2022-12-22T14:35:22.322Z,100.00
2022-12-22T14:37:55.241Z,100.00
2022-12-22T14:40:37.870Z,100.00
2022-12-22T14:43:21.011Z,100.00
2022-12-22T14:45:51.669Z,100.00
2022-12-22T14:48:32.498Z,100.00
2022-12-22T14:50:59.814Z,100.00
2022-12-22T14:53:49.800Z,100.00
2022-12-22T14:56:17.670Z,100.00
2022-12-22T14:58:46.297Z,100.00
2022-12-22T15:01:17.303Z,100.00
2022-12-22T15:03:46.400Z,100.00
2022-12-22T15:06:28.282Z,100.00
2022-12-22T15:09:13.532Z,100.00
2022-12-22T15:12:14.938Z,100.00
2022-12-22T15:14:42.390Z,100.00
2022-12-22T15:17:21.748Z,100.00
2022-12-22T15:19:48.991Z,100.00
2022-12-22T15:22:15.632Z,100.00
2022-12-22T15:24:42.226Z,100.00
2022-12-22T15:27:08.851Z,100.00
2022-12-22T15:29:35.460Z,100.00
2022-12-22T15:32:02.074Z,100.00
2022-12-22T15:34:31.957Z,100.00
2022-12-22T15:36:58.639Z,100.00
2022-12-22T15:39:25.325Z,100.00
2022-12-22T15:41:51.915Z,100.00
2022-12-22T15:44:18.702Z,100.00
2022-12-22T15:46:52.913Z,100.00
2022-12-22T15:49:22.737Z,100.00
2022-12-22T15:51:56.444Z,100.00
2022-12-22T15:54:26.360Z,100.00
2022-12-22T15:56:54.842Z,100.00
2022-12-22T15:59:24.916Z,100.00
2022-12-22T16:01:56.611Z,100.00
2022-12-22T16:04:27.054Z,100.00
2022-12-22T16:06:54.145Z,100.00
2022-12-22T16:09:25.252Z,100.00
2022-12-22T16:11:52.097Z,100.00
2022-12-22T16:14:20.601Z,100.00
2022-12-22T16:16:47.211Z,100.00
2022-12-22T16:19:16.454Z,100.00
2022-12-22T16:21:47.714Z,100.00
2022-12-22T16:24:27.009Z,100.00
2022-12-22T16:26:54.351Z,100.00
2022-12-22T16:29:20.956Z,100.00
2022-12-22T16:31:47.590Z,100.00
2022-12-22T16:34:14.308Z,100.00
2022-12-22T16:36:41.005Z,100.00
2022-12-22T16:39:07.614Z,100.00
2022-12-22T16:41:34.414Z,100.00
2022-12-22T16:46:46.759Z,100.00
2022-12-22T16:49:22.932Z,100.00
2022-12-22T16:51:53.958Z,100.00
2022-12-22T16:54:20.653Z,100.00
2022-12-22T16:56:47.399Z,100.00
2022-12-22T16:59:14.313Z,100.00
2022-12-22T17:01:55.810Z,100.00
2022-12-22T17:04:30.426Z,100.00
2022-12-22T17:06:59.811Z,100.00
2022-12-22T17:09:42.641Z,100.00
2022-12-22T17:12:17.106Z,100.00
2022-12-22T17:14:44.107Z,100.00
2022-12-22T17:17:18.439Z,100.00
2022-12-22T17:19:45.086Z,100.00
2022-12-22T17:22:22.331Z,100.00
2022-12-22T17:24:51.365Z,100.00
2022-12-22T17:27:23.446Z,100.00
2022-12-22T17:29:50.649Z,100.00
2022-12-22T17:32:20.480Z,100.00
2022-12-22T17:34:47.667Z,100.00
2022-12-22T17:37:21.414Z,100.00
2022-12-22T17:39:50.783Z,100.00
2022-12-22T17:42:22.633Z,100.00
2022-12-22T17:44:50.940Z,100.00
2022-12-22T17:47:23.848Z,100.00
2022-12-22T17:49:55.227Z,100.00
2022-12-22T17:52:23.920Z,100.00
2022-12-22T17:54:52.615Z,100.00
2022-12-22T17:57:23.630Z,100.00
2022-12-22T17:59:50.265Z,100.00
2022-12-22T18:02:19.657Z,100.00
2022-12-22T18:04:47.297Z,100.00
2022-12-22T18:07:17.399Z,100.00
2022-12-22T18:09:45.625Z,100.00
2022-12-22T18:12:21.991Z,100.00
2022-12-22T18:14:49.464Z,100.00
2022-12-22T18:17:35.125Z,100.00
2022-12-22T18:20:02.755Z,100.00
2022-12-22T18:22:30.302Z,100.00
2022-12-22T18:24:57.758Z,100.00
2022-12-22T18:27:24.417Z,100.00
2022-12-22T18:29:51.166Z,100.00
2022-12-22T18:32:26.325Z,100.00
2022-12-22T18:34:54.486Z,100.00
2022-12-22T18:37:21.225Z,100.00
2022-12-22T18:39:47.962Z,100.00
2022-12-22T18:42:22.944Z,100.00
2022-12-22T18:44:50.694Z,100.00
2022-12-22T18:47:17.496Z,100.00
2022-12-22T18:49:44.915Z,100.00
2022-12-22T18:52:17.493Z,100.00
2022-12-22T18:54:44.920Z,100.00
2022-12-22T18:57:17.571Z,100.00
2022-12-22T18:59:45.269Z,100.00
2022-12-22T19:02:19.741Z,100.00
2022-12-22T19:04:47.255Z,100.00
2022-12-22T19:07:22.432Z,100.00
2022-12-22T19:09:49.960Z,100.00
2022-12-22T19:12:19.599Z,100.00
2022-12-22T19:14:50.193Z,100.00
2022-12-22T19:17:22.786Z,100.00
2022-12-22T19:19:49.510Z,100.00
2022-12-22T19:22:16.615Z,100.00
2022-12-22T19:24:43.702Z,100.00
2022-12-22T19:27:25.393Z,100.00
2022-12-22T19:30:03.020Z,100.00
2022-12-22T19:32:39.374Z,100.00
2022-12-22T19:35:16.247Z,100.00
2022-12-22T19:37:42.904Z,100.00
2022-12-22T19:40:12.581Z,100.00
2022-12-22T19:42:40.653Z,100.00
2022-12-22T19:45:21.447Z,100.00
2022-12-22T19:47:49.710Z,100.00
2022-12-22T19:50:27.585Z,100.00
2022-12-22T19:52:56.013Z,100.00
2022-12-22T19:55:25.415Z,100.00
2022-12-22T19:57:52.630Z,100.00
2022-12-22T20:00:25.153Z,100.00
2022-12-22T20:02:54.659Z,100.00
2022-12-22T20:05:24.504Z,100.00
2022-12-22T20:07:53.606Z,100.00
2022-12-22T20:10:21.963Z,100.00
2022-12-22T20:12:51.969Z,100.00
2022-12-22T20:15:21.499Z,100.00
2022-12-22T20:17:50.256Z,100.00
2022-12-22T20:20:36.019Z,100.00
2022-12-22T20:23:17.864Z,100.00
2022-12-22T20:25:49.135Z,100.00
2022-12-22T20:28:19.850Z,100.00
2022-12-22T20:30:48.030Z,100.00
2022-12-22T20:33:17.177Z,100.00
2022-12-22T20:35:45.735Z,100.00
2022-12-22T20:38:18.238Z,100.00
2022-12-22T20:40:46.625Z,100.00
2022-12-22T20:43:20.092Z,100.00
2022-12-22T20:45:50.852Z,100.00
2022-12-22T20:48:39.260Z,100.00
2022-12-22T20:51:10.205Z,100.00
2022-12-22T20:53:37.144Z,100.00
2022-12-22T20:56:04.229Z,100.00
2022-12-22T20:58:34.520Z,100.00
2022-12-22T21:01:02.267Z,100.00
2022-12-22T21:03:29.407Z,100.00
2022-12-22T21:05:56.443Z,100.00
2022-12-22T21:08:26.124Z,100.00
2022-12-22T21:10:54.580Z,100.00
2022-12-22T21:13:24.216Z,100.00
2022-12-22T21:15:51.651Z,100.00
2022-12-22T21:18:21.845Z,100.00
2022-12-22T21:20:50.876Z,100.00
2022-12-22T21:23:18.314Z,100.00
2022-12-22T21:25:49.387Z,100.00
2022-12-22T21:28:32.141Z,100.00
2022-12-22T21:30:59.409Z,100.00
2022-12-22T21:33:26.857Z,100.00
2022-12-22T21:35:55.595Z,100.00
2022-12-22T21:38:25.675Z,100.00
2022-12-22T21:40:52.629Z,100.00
2022-12-22T21:43:19.539Z,100.00
2022-12-22T21:45:49.626Z,100.00
2022-12-22T21:48:19.104Z,100.00
2022-12-22T21:50:47.991Z,100.00
2022-12-22T21:53:21.506Z,100.00
2022-12-22T21:55:49.127Z,100.00
2022-12-22T21:58:16.186Z,100.00
2022-12-22T22:00:48.183Z,100.00
2022-12-22T22:03:16.030Z,100.00
2022-12-22T22:05:43.443Z,100.00
2022-12-22T22:08:12.357Z,100.00
2022-12-22T22:10:42.109Z,100.00
2022-12-22T22:13:13.853Z,100.00
2022-12-22T22:15:40.895Z,100.00
2022-12-22T22:18:09.277Z,100.00
2022-12-22T22:20:36.134Z,100.00
2022-12-22T22:23:03.003Z,100.00
2022-12-22T22:25:29.848Z,100.00
2022-12-22T22:27:58.832Z,100.00
2022-12-22T22:30:26.476Z,100.00
2022-12-22T22:32:53.989Z,100.00
2022-12-22T22:35:21.980Z,100.00
2022-12-22T22:37:50.013Z,100.00
2022-12-22T22:40:19.679Z,100.00
2022-12-22T22:42:46.775Z,100.00
2022-12-22T22:45:16.587Z,100.00
2022-12-22T22:47:43.470Z,100.00
2022-12-22T22:50:10.418Z,100.00
2022-12-22T22:52:37.527Z,100.00
2022-12-22T22:55:04.642Z,100.00
2022-12-22T22:57:31.633Z,100.00
2022-12-22T22:59:58.564Z,100.00
2022-12-22T23:02:25.559Z,100.00
2022-12-22T23:04:52.828Z,100.00
2022-12-22T23:07:19.741Z,100.00
2022-12-22T23:09:46.578Z,100.00
2022-12-22T23:12:13.454Z,100.00
2022-12-22T23:14:40.447Z,100.00
2022-12-22T23:17:07.321Z,100.00
2022-12-22T23:19:34.461Z,100.00
2022-12-22T23:22:01.385Z,100.00
2022-12-22T23:24:28.373Z,100.00
2022-12-22T23:26:55.315Z,100.00
2022-12-22T23:29:22.186Z,100.00
2022-12-22T23:31:49.192Z,100.00
2022-12-22T23:34:16.138Z,100.00
2022-12-22T23:36:43.044Z,100.00
2022-12-22T23:39:11.423Z,100.00
2022-12-22T23:41:38.323Z,100.00
2022-12-22T23:44:05.226Z,100.00
2022-12-22T23:46:32.139Z,100.00
2022-12-22T23:49:00.042Z,100.00
2022-12-22T23:51:28.869Z,100.00
2022-12-22T23:53:56.977Z,100.00
2022-12-22T23:56:23.965Z,100.00
2022-12-22T23:58:54.547Z,100.00
